sensor_id;sensor_type;location;lat;lon;timestamp;P1;durP1;ratioP1;P2;durP2;ratioP2
39188;SDS011;24915;50.858;4.376;2023-04-26T00:01:48;19.17;;;6.15;;
39188;SDS011;24915;50.858;4.376;2023-04-26T00:04:15;20.27;;;6.50;;
39188;SDS011;24915;50.858;4.376;2023-04-26T00:06:41;14.73;;;6.13;;
39188;SDS011;24915;50.858;4.376;2023-04-26T00:09:07;16.85;;;6.20;;
39188;SDS011;24915;50.858;4.376;2023-04-26T00:11:33;16.20;;;6.30;;
39188;SDS011;24915;50.858;4.376;2023-04-26T00:13:59;17.65;;;5.88;;
39188;SDS011;24915;50.858;4.376;2023-04-26T00:16:25;10.43;;;5.55;;
39188;SDS011;24915;50.858;4.376;2023-04-26T00:18:51;17.23;;;5.95;;
39188;SDS011;24915;50.858;4.376;2023-04-26T00:21:18;18.38;;;7.07;;
39188;SDS011;24915;50.858;4.376;2023-04-26T00:23:44;15.15;;;6.25;;
39188;SDS011;24915;50.858;4.376;2023-04-26T00:26:10;17.20;;;6.50;;
39188;SDS011;24915;50.858;4.376;2023-04-26T00:28:36;14.13;;;6.28;;
39188;SDS011;24915;50.858;4.376;2023-04-26T00:31:02;10.45;;;5.68;;
39188;SDS011;24915;50.858;4.376;2023-04-26T00:33:28;17.88;;;5.97;;
39188;SDS011;24915;50.858;4.376;2023-04-26T00:35:55;16.75;;;6.88;;
39188;SDS011;24915;50.858;4.376;2023-04-26T00:38:21;19.08;;;6.63;;
39188;SDS011;24915;50.858;4.376;2023-04-26T00:40:47;17.35;;;6.72;;
39188;SDS011;24915;50.858;4.376;2023-04-26T00:43:13;14.65;;;6.28;;
39188;SDS011;24915;50.858;4.376;2023-04-26T00:45:39;11.00;;;6.07;;
39188;SDS011;24915;50.858;4.376;2023-04-26T00:48:05;17.27;;;6.63;;
39188;SDS011;24915;50.858;4.376;2023-04-26T00:50:31;20.00;;;6.55;;
39188;SDS011;24915;50.858;4.376;2023-04-26T00:52:57;16.88;;;7.07;;
39188;SDS011;24915;50.858;4.376;2023-04-26T00:55:24;15.55;;;7.25;;
39188;SDS011;24915;50.858;4.376;2023-04-26T00:57:53;11.80;;;6.57;;
39188;SDS011;24915;50.858;4.376;2023-04-26T01:00:19;16.63;;;7.63;;
39188;SDS011;24915;50.858;4.376;2023-04-26T01:02:45;22.02;;;7.10;;
39188;SDS011;24915;50.858;4.376;2023-04-26T01:05:12;16.85;;;7.03;;
39188;SDS011;24915;50.858;4.376;2023-04-26T01:07:38;17.60;;;7.28;;
39188;SDS011;24915;50.858;4.376;2023-04-26T01:10:05;18.90;;;7.43;;
39188;SDS011;24915;50.858;4.376;2023-04-26T01:12:33;19.58;;;6.90;;
39188;SDS011;24915;50.858;4.376;2023-04-26T01:14:59;14.57;;;8.30;;
39188;SDS011;24915;50.858;4.376;2023-04-26T01:17:25;19.80;;;8.63;;
39188;SDS011;24915;50.858;4.376;2023-04-26T01:19:52;19.40;;;8.00;;
39188;SDS011;24915;50.858;4.376;2023-04-26T01:22:18;19.85;;;8.85;;
39188;SDS011;24915;50.858;4.376;2023-04-26T01:24:45;20.80;;;8.80;;
39188;SDS011;24915;50.858;4.376;2023-04-26T01:27:13;19.77;;;8.40;;
39188;SDS011;24915;50.858;4.376;2023-04-26T01:29:40;18.33;;;7.88;;
39188;SDS011;24915;50.858;4.376;2023-04-26T01:32:07;21.42;;;8.32;;
39188;SDS011;24915;50.858;4.376;2023-04-26T01:34:33;26.13;;;8.82;;
39188;SDS011;24915;50.858;4.376;2023-04-26T01:36:59;19.67;;;8.30;;
39188;SDS011;24915;50.858;4.376;2023-04-26T01:39:25;22.52;;;8.10;;
39188;SDS011;24915;50.858;4.376;2023-04-26T01:41:52;19.13;;;7.97;;
39188;SDS011;24915;50.858;4.376;2023-04-26T01:44:18;16.83;;;7.97;;
39188;SDS011;24915;50.858;4.376;2023-04-26T01:46:44;13.60;;;7.35;;
39188;SDS011;24915;50.858;4.376;2023-04-26T01:49:10;19.67;;;8.15;;
39188;SDS011;24915;50.858;4.376;2023-04-26T01:51:36;21.65;;;8.10;;
39188;SDS011;24915;50.858;4.376;2023-04-26T01:54:02;19.70;;;7.55;;
39188;SDS011;24915;50.858;4.376;2023-04-26T01:56:28;13.93;;;6.22;;
39188;SDS011;24915;50.858;4.376;2023-04-26T01:58:54;18.23;;;8.00;;
39188;SDS011;24915;50.858;4.376;2023-04-26T02:01:21;18.40;;;7.60;;
39188;SDS011;24915;50.858;4.376;2023-04-26T02:03:47;21.40;;;6.60;;
39188;SDS011;24915;50.858;4.376;2023-04-26T02:06:13;14.02;;;6.43;;
39188;SDS011;24915;50.858;4.376;2023-04-26T02:08:39;17.85;;;7.25;;
39188;SDS011;24915;50.858;4.376;2023-04-26T02:11:05;19.42;;;7.60;;
39188;SDS011;24915;50.858;4.376;2023-04-26T02:13:31;15.00;;;7.35;;
39188;SDS011;24915;50.858;4.376;2023-04-26T02:15:57;20.02;;;7.97;;
39188;SDS011;24915;50.858;4.376;2023-04-26T02:18:24;17.70;;;7.45;;
39188;SDS011;24915;50.858;4.376;2023-04-26T02:20:50;19.95;;;8.45;;
39188;SDS011;24915;50.858;4.376;2023-04-26T02:23:16;16.63;;;8.32;;
39188;SDS011;24915;50.858;4.376;2023-04-26T02:25:46;20.77;;;8.73;;
39188;SDS011;24915;50.858;4.376;2023-04-26T02:28:13;21.15;;;8.40;;
39188;SDS011;24915;50.858;4.376;2023-04-26T02:30:40;19.20;;;8.32;;
39188;SDS011;24915;50.858;4.376;2023-04-26T02:33:06;22.95;;;8.52;;
39188;SDS011;24915;50.858;4.376;2023-04-26T02:35:35;17.00;;;8.48;;
39188;SDS011;24915;50.858;4.376;2023-04-26T02:38:02;18.23;;;8.32;;
39188;SDS011;24915;50.858;4.376;2023-04-26T02:40:28;23.15;;;8.10;;
39188;SDS011;24915;50.858;4.376;2023-04-26T02:42:54;18.90;;;8.73;;
39188;SDS011;24915;50.858;4.376;2023-04-26T02:45:21;17.15;;;8.60;;
39188;SDS011;24915;50.858;4.376;2023-04-26T02:47:47;16.77;;;8.23;;
39188;SDS011;24915;50.858;4.376;2023-04-26T02:50:13;20.33;;;7.78;;
39188;SDS011;24915;50.858;4.376;2023-04-26T02:52:39;14.35;;;8.15;;
39188;SDS011;24915;50.858;4.376;2023-04-26T02:55:05;17.23;;;8.07;;
39188;SDS011;24915;50.858;4.376;2023-04-26T02:57:31;24.08;;;8.85;;
39188;SDS011;24915;50.858;4.376;2023-04-26T02:59:58;23.05;;;8.50;;
39188;SDS011;24915;50.858;4.376;2023-04-26T03:02:24;20.48;;;8.85;;
39188;SDS011;24915;50.858;4.376;2023-04-26T03:04:51;22.52;;;8.77;;
39188;SDS011;24915;50.858;4.376;2023-04-26T03:07:17;21.52;;;8.30;;
39188;SDS011;24915;50.858;4.376;2023-04-26T03:09:43;26.75;;;8.40;;
39188;SDS011;24915;50.858;4.376;2023-04-26T03:12:09;19.65;;;8.68;;
39188;SDS011;24915;50.858;4.376;2023-04-26T03:14:35;25.05;;;8.52;;
39188;SDS011;24915;50.858;4.376;2023-04-26T03:17:01;21.48;;;7.88;;
39188;SDS011;24915;50.858;4.376;2023-04-26T03:19:27;25.55;;;8.10;;
39188;SDS011;24915;50.858;4.376;2023-04-26T03:21:55;20.38;;;8.25;;
39188;SDS011;24915;50.858;4.376;2023-04-26T03:24:21;24.40;;;8.30;;
39188;SDS011;24915;50.858;4.376;2023-04-26T03:26:47;21.05;;;8.77;;
39188;SDS011;24915;50.858;4.376;2023-04-26T03:29:13;15.57;;;7.78;;
39188;SDS011;24915;50.858;4.376;2023-04-26T03:31:39;21.30;;;7.97;;
39188;SDS011;24915;50.858;4.376;2023-04-26T03:34:05;21.60;;;7.68;;
39188;SDS011;24915;50.858;4.376;2023-04-26T03:36:32;21.98;;;8.48;;
39188;SDS011;24915;50.858;4.376;2023-04-26T03:38:58;21.33;;;8.27;;
39188;SDS011;24915;50.858;4.376;2023-04-26T03:41:24;24.38;;;8.95;;
39188;SDS011;24915;50.858;4.376;2023-04-26T03:43:50;27.77;;;8.77;;
39188;SDS011;24915;50.858;4.376;2023-04-26T03:46:16;19.75;;;8.77;;
39188;SDS011;24915;50.858;4.376;2023-04-26T03:48:43;16.05;;;8.02;;
39188;SDS011;24915;50.858;4.376;2023-04-26T03:51:09;21.15;;;8.45;;
39188;SDS011;24915;50.858;4.376;2023-04-26T03:53:35;19.65;;;8.38;;
39188;SDS011;24915;50.858;4.376;2023-04-26T03:56:01;20.48;;;8.68;;
39188;SDS011;24915;50.858;4.376;2023-04-26T03:58:27;17.27;;;8.98;;
39188;SDS011;24915;50.858;4.376;2023-04-26T04:00:56;23.42;;;8.68;;
39188;SDS011;24915;50.858;4.376;2023-04-26T04:03:22;20.25;;;9.35;;
39188;SDS011;24915;50.858;4.376;2023-04-26T04:05:48;26.63;;;7.97;;
39188;SDS011;24915;50.858;4.376;2023-04-26T04:08:15;23.75;;;9.05;;
39188;SDS011;24915;50.858;4.376;2023-04-26T04:10:41;15.20;;;8.05;;
39188;SDS011;24915;50.858;4.376;2023-04-26T04:13:07;29.63;;;9.75;;
39188;SDS011;24915;50.858;4.376;2023-04-26T04:15:33;20.50;;;8.65;;
39188;SDS011;24915;50.858;4.376;2023-04-26T04:17:59;28.75;;;8.77;;
39188;SDS011;24915;50.858;4.376;2023-04-26T04:20:25;28.45;;;9.40;;
39188;SDS011;24915;50.858;4.376;2023-04-26T04:22:51;28.90;;;10.07;;
39188;SDS011;24915;50.858;4.376;2023-04-26T04:25:17;28.02;;;10.10;;
39188;SDS011;24915;50.858;4.376;2023-04-26T04:27:46;25.98;;;10.45;;
39188;SDS011;24915;50.858;4.376;2023-04-26T04:30:12;26.15;;;9.32;;
39188;SDS011;24915;50.858;4.376;2023-04-26T04:32:38;25.05;;;10.05;;
39188;SDS011;24915;50.858;4.376;2023-04-26T04:35:08;22.02;;;8.85;;
39188;SDS011;24915;50.858;4.376;2023-04-26T04:37:35;25.92;;;10.52;;
39188;SDS011;24915;50.858;4.376;2023-04-26T04:40:03;25.70;;;10.07;;
39188;SDS011;24915;50.858;4.376;2023-04-26T04:42:29;29.50;;;10.15;;
39188;SDS011;24915;50.858;4.376;2023-04-26T04:44:56;25.23;;;9.68;;
39188;SDS011;24915;50.858;4.376;2023-04-26T04:47:23;16.33;;;9.27;;
39188;SDS011;24915;50.858;4.376;2023-04-26T04:49:49;29.17;;;9.43;;
39188;SDS011;24915;50.858;4.376;2023-04-26T04:52:17;18.75;;;8.90;;
39188;SDS011;24915;50.858;4.376;2023-04-26T04:54:45;32.03;;;10.52;;
39188;SDS011;24915;50.858;4.376;2023-04-26T04:57:11;26.90;;;8.98;;
39188;SDS011;24915;50.858;4.376;2023-04-26T04:59:38;19.20;;;9.40;;
39188;SDS011;24915;50.858;4.376;2023-04-26T05:02:04;19.10;;;8.90;;
39188;SDS011;24915;50.858;4.376;2023-04-26T05:04:30;27.00;;;9.68;;
39188;SDS011;24915;50.858;4.376;2023-04-26T05:06:58;28.70;;;10.15;;
39188;SDS011;24915;50.858;4.376;2023-04-26T05:09:24;20.70;;;8.48;;
39188;SDS011;24915;50.858;4.376;2023-04-26T05:11:51;23.45;;;9.10;;
39188;SDS011;24915;50.858;4.376;2023-04-26T05:14:17;29.48;;;10.35;;
39188;SDS011;24915;50.858;4.376;2023-04-26T05:16:43;33.70;;;10.55;;
39188;SDS011;24915;50.858;4.376;2023-04-26T05:19:09;33.58;;;10.52;;
39188;SDS011;24915;50.858;4.376;2023-04-26T05:21:37;25.13;;;10.18;;
39188;SDS011;24915;50.858;4.376;2023-04-26T05:24:03;37.05;;;10.50;;
39188;SDS011;24915;50.858;4.376;2023-04-26T05:26:29;24.25;;;10.10;;
39188;SDS011;24915;50.858;4.376;2023-04-26T05:28:55;37.45;;;10.15;;
39188;SDS011;24915;50.858;4.376;2023-04-26T05:31:21;27.42;;;9.80;;
39188;SDS011;24915;50.858;4.376;2023-04-26T05:33:48;25.25;;;9.80;;
39188;SDS011;24915;50.858;4.376;2023-04-26T05:36:14;27.85;;;10.02;;
39188;SDS011;24915;50.858;4.376;2023-04-26T05:38:40;27.30;;;10.05;;
39188;SDS011;24915;50.858;4.376;2023-04-26T05:41:06;27.90;;;10.23;;
39188;SDS011;24915;50.858;4.376;2023-04-26T05:43:32;29.88;;;10.20;;
39188;SDS011;24915;50.858;4.376;2023-04-26T05:45:58;30.52;;;10.50;;
39188;SDS011;24915;50.858;4.376;2023-04-26T05:48:26;25.33;;;10.20;;
39188;SDS011;24915;50.858;4.376;2023-04-26T05:50:53;23.23;;;9.65;;
39188;SDS011;24915;50.858;4.376;2023-04-26T05:53:19;25.67;;;9.40;;
39188;SDS011;24915;50.858;4.376;2023-04-26T05:55:46;27.55;;;10.40;;
39188;SDS011;24915;50.858;4.376;2023-04-26T05:58:12;25.70;;;9.93;;
39188;SDS011;24915;50.858;4.376;2023-04-26T06:00:38;21.10;;;9.82;;
39188;SDS011;24915;50.858;4.376;2023-04-26T06:03:05;19.15;;;9.10;;
39188;SDS011;24915;50.858;4.376;2023-04-26T06:05:31;25.23;;;9.38;;
39188;SDS011;24915;50.858;4.376;2023-04-26T06:07:58;26.45;;;9.82;;
39188;SDS011;24915;50.858;4.376;2023-04-26T06:10:24;23.60;;;9.50;;
39188;SDS011;24915;50.858;4.376;2023-04-26T06:12:50;17.58;;;9.35;;
39188;SDS011;24915;50.858;4.376;2023-04-26T06:15:17;23.77;;;9.18;;
39188;SDS011;24915;50.858;4.376;2023-04-26T06:17:43;29.45;;;10.55;;
39188;SDS011;24915;50.858;4.376;2023-04-26T06:20:09;28.20;;;9.38;;
39188;SDS011;24915;50.858;4.376;2023-04-26T06:22:35;24.95;;;9.68;;
39188;SDS011;24915;50.858;4.376;2023-04-26T06:25:03;23.42;;;9.45;;
39188;SDS011;24915;50.858;4.376;2023-04-26T06:27:29;21.23;;;8.50;;
39188;SDS011;24915;50.858;4.376;2023-04-26T06:29:55;20.92;;;7.40;;
39188;SDS011;24915;50.858;4.376;2023-04-26T06:32:21;20.98;;;7.47;;
39188;SDS011;24915;50.858;4.376;2023-04-26T06:34:47;17.80;;;6.38;;
39188;SDS011;24915;50.858;4.376;2023-04-26T06:37:13;18.48;;;5.50;;
39188;SDS011;24915;50.858;4.376;2023-04-26T06:39:40;12.50;;;5.68;;
39188;SDS011;24915;50.858;4.376;2023-04-26T06:42:06;13.27;;;5.07;;
39188;SDS011;24915;50.858;4.376;2023-04-26T06:44:32;20.02;;;5.50;;
39188;SDS011;24915;50.858;4.376;2023-04-26T06:46:58;23.67;;;6.15;;
39188;SDS011;24915;50.858;4.376;2023-04-26T06:49:24;23.48;;;7.68;;
39188;SDS011;24915;50.858;4.376;2023-04-26T06:51:50;18.38;;;5.93;;
39188;SDS011;24915;50.858;4.376;2023-04-26T06:54:17;20.95;;;4.68;;
39188;SDS011;24915;50.858;4.376;2023-04-26T06:56:43;15.88;;;4.57;;
39188;SDS011;24915;50.858;4.376;2023-04-26T06:59:10;14.23;;;5.07;;
39188;SDS011;24915;50.858;4.376;2023-04-26T07:01:36;13.50;;;5.00;;
39188;SDS011;24915;50.858;4.376;2023-04-26T07:04:02;25.35;;;5.50;;
39188;SDS011;24915;50.858;4.376;2023-04-26T07:06:29;45.20;;;6.35;;
39188;SDS011;24915;50.858;4.376;2023-04-26T07:08:59;37.05;;;6.68;;
39188;SDS011;24915;50.858;4.376;2023-04-26T07:11:26;12.55;;;4.03;;
39188;SDS011;24915;50.858;4.376;2023-04-26T07:13:53;15.32;;;4.55;;
39188;SDS011;24915;50.858;4.376;2023-04-26T07:16:19;9.55;;;4.07;;
39188;SDS011;24915;50.858;4.376;2023-04-26T07:18:45;14.48;;;3.50;;
39188;SDS011;24915;50.858;4.376;2023-04-26T07:21:15;14.10;;;4.15;;
39188;SDS011;24915;50.858;4.376;2023-04-26T07:23:41;13.68;;;3.90;;
39188;SDS011;24915;50.858;4.376;2023-04-26T07:26:09;13.27;;;3.50;;
39188;SDS011;24915;50.858;4.376;2023-04-26T07:28:35;15.93;;;3.60;;
39188;SDS011;24915;50.858;4.376;2023-04-26T07:31:01;14.55;;;3.10;;
39188;SDS011;24915;50.858;4.376;2023-04-26T07:33:27;13.32;;;3.55;;
39188;SDS011;24915;50.858;4.376;2023-04-26T07:35:54;14.38;;;3.78;;
39188;SDS011;24915;50.858;4.376;2023-04-26T07:38:21;11.50;;;3.67;;
39188;SDS011;24915;50.858;4.376;2023-04-26T07:40:47;11.13;;;3.58;;
39188;SDS011;24915;50.858;4.376;2023-04-26T07:43:13;16.63;;;4.05;;
39188;SDS011;24915;50.858;4.376;2023-04-26T07:45:39;13.88;;;4.68;;
39188;SDS011;24915;50.858;4.376;2023-04-26T07:48:06;9.02;;;3.95;;
39188;SDS011;24915;50.858;4.376;2023-04-26T07:50:32;20.65;;;4.78;;
39188;SDS011;24915;50.858;4.376;2023-04-26T07:52:58;22.55;;;5.10;;
39188;SDS011;24915;50.858;4.376;2023-04-26T07:55:24;13.80;;;4.95;;
39188;SDS011;24915;50.858;4.376;2023-04-26T07:57:50;13.98;;;4.45;;
39188;SDS011;24915;50.858;4.376;2023-04-26T08:00:17;13.60;;;3.90;;
39188;SDS011;24915;50.858;4.376;2023-04-26T08:02:43;18.08;;;4.60;;
39188;SDS011;24915;50.858;4.376;2023-04-26T08:05:13;12.40;;;4.18;;
39188;SDS011;24915;50.858;4.376;2023-04-26T08:07:39;13.65;;;4.43;;
39188;SDS011;24915;50.858;4.376;2023-04-26T08:10:05;19.15;;;5.40;;
39188;SDS011;24915;50.858;4.376;2023-04-26T08:12:33;17.90;;;6.63;;
39188;SDS011;24915;50.858;4.376;2023-04-26T08:14:59;16.50;;;5.30;;
39188;SDS011;24915;50.858;4.376;2023-04-26T08:17:25;12.88;;;6.32;;
39188;SDS011;24915;50.858;4.376;2023-04-26T08:19:51;14.80;;;6.82;;
39188;SDS011;24915;50.858;4.376;2023-04-26T08:22:17;12.60;;;6.30;;
39188;SDS011;24915;50.858;4.376;2023-04-26T08:24:47;25.15;;;6.30;;
39188;SDS011;24915;50.858;4.376;2023-04-26T08:27:14;12.95;;;6.15;;
39188;SDS011;24915;50.858;4.376;2023-04-26T08:29:40;12.73;;;5.60;;
39188;SDS011;24915;50.858;4.376;2023-04-26T08:32:07;17.45;;;5.43;;
39188;SDS011;24915;50.858;4.376;2023-04-26T08:34:33;13.00;;;5.35;;
39188;SDS011;24915;50.858;4.376;2023-04-26T08:36:59;14.50;;;6.05;;
39188;SDS011;24915;50.858;4.376;2023-04-26T08:39:25;16.05;;;4.10;;
39188;SDS011;24915;50.858;4.376;2023-04-26T08:41:52;15.68;;;5.30;;
39188;SDS011;24915;50.858;4.376;2023-04-26T08:44:22;17.15;;;6.07;;
39188;SDS011;24915;50.858;4.376;2023-04-26T08:51:50;12.07;;;4.43;;
39188;SDS011;24915;50.858;4.376;2023-04-26T08:54:17;14.32;;;4.68;;
39188;SDS011;24915;50.858;4.376;2023-04-26T08:56:44;16.02;;;6.78;;
39188;SDS011;24915;50.858;4.376;2023-04-26T08:59:11;15.40;;;5.40;;
39188;SDS011;24915;50.858;4.376;2023-04-26T09:01:38;13.00;;;5.45;;
39188;SDS011;24915;50.858;4.376;2023-04-26T09:04:06;18.58;;;5.65;;
39188;SDS011;24915;50.858;4.376;2023-04-26T09:06:32;14.70;;;5.25;;
39188;SDS011;24915;50.858;4.376;2023-04-26T09:09:00;12.88;;;5.30;;
39188;SDS011;24915;50.858;4.376;2023-04-26T09:11:29;18.02;;;6.00;;
39188;SDS011;24915;50.858;4.376;2023-04-26T09:13:55;11.10;;;4.80;;
39188;SDS011;24915;50.858;4.376;2023-04-26T09:16:34;47.05;;;8.13;;
39188;SDS011;24915;50.858;4.376;2023-04-26T09:19:01;24.83;;;6.53;;
39188;SDS011;24915;50.858;4.376;2023-04-26T09:21:27;20.90;;;4.93;;
39188;SDS011;24915;50.858;4.376;2023-04-26T09:23:56;15.88;;;5.28;;
39188;SDS011;24915;50.858;4.376;2023-04-26T09:26:23;64.35;;;7.70;;
39188;SDS011;24915;50.858;4.376;2023-04-26T09:28:50;25.65;;;5.57;;
39188;SDS011;24915;50.858;4.376;2023-04-26T09:31:36;23.80;;;5.50;;
39188;SDS011;24915;50.858;4.376;2023-04-26T09:34:03;18.23;;;5.57;;
39188;SDS011;24915;50.858;4.376;2023-04-26T09:36:29;11.13;;;4.85;;
39188;SDS011;24915;50.858;4.376;2023-04-26T09:38:55;8.73;;;4.38;;
39188;SDS011;24915;50.858;4.376;2023-04-26T09:41:21;11.00;;;5.25;;
39188;SDS011;24915;50.858;4.376;2023-04-26T09:43:49;15.30;;;5.15;;
39188;SDS011;24915;50.858;4.376;2023-04-26T09:46:20;12.48;;;4.72;;
39188;SDS011;24915;50.858;4.376;2023-04-26T09:48:51;9.48;;;3.75;;
39188;SDS011;24915;50.858;4.376;2023-04-26T09:51:24;8.63;;;3.97;;
39188;SDS011;24915;50.858;4.376;2023-04-26T09:53:51;9.55;;;4.70;;
39188;SDS011;24915;50.858;4.376;2023-04-26T09:56:17;7.82;;;4.15;;
39188;SDS011;24915;50.858;4.376;2023-04-26T10:01:14;9.38;;;3.47;;
39188;SDS011;24915;50.858;4.376;2023-04-26T10:03:42;11.93;;;3.63;;
39188;SDS011;24915;50.858;4.376;2023-04-26T10:06:08;10.95;;;4.25;;
39188;SDS011;24915;50.858;4.376;2023-04-26T10:08:34;9.38;;;4.13;;
39188;SDS011;24915;50.858;4.376;2023-04-26T10:11:02;10.63;;;3.97;;
39188;SDS011;24915;50.858;4.376;2023-04-26T10:13:32;9.18;;;4.00;;
39188;SDS011;24915;50.858;4.376;2023-04-26T10:16:02;12.40;;;4.25;;
39188;SDS011;24915;50.858;4.376;2023-04-26T10:18:29;13.80;;;4.38;;
39188;SDS011;24915;50.858;4.376;2023-04-26T10:20:59;10.15;;;4.78;;
39188;SDS011;24915;50.858;4.376;2023-04-26T10:23:26;10.73;;;4.00;;
39188;SDS011;24915;50.858;4.376;2023-04-26T10:25:53;14.10;;;4.30;;
39188;SDS011;24915;50.858;4.376;2023-04-26T10:31:05;10.15;;;4.28;;
39188;SDS011;24915;50.858;4.376;2023-04-26T10:33:32;14.80;;;3.85;;
39188;SDS011;24915;50.858;4.376;2023-04-26T10:36:02;8.65;;;4.18;;
39188;SDS011;24915;50.858;4.376;2023-04-26T10:38:29;9.65;;;3.38;;
39188;SDS011;24915;50.858;4.376;2023-04-26T10:40:55;8.77;;;4.20;;
39188;SDS011;24915;50.858;4.376;2023-04-26T10:43:41;13.05;;;3.90;;
39188;SDS011;24915;50.858;4.376;2023-04-26T10:46:49;11.05;;;4.55;;
39188;SDS011;24915;50.858;4.376;2023-04-26T10:48:56;11.55;;;4.18;;
39188;SDS011;24915;50.858;4.376;2023-04-26T10:51:22;11.32;;;3.97;;
39188;SDS011;24915;50.858;4.376;2023-04-26T10:58:48;11.98;;;4.78;;
39188;SDS011;24915;50.858;4.376;2023-04-26T11:01:17;8.60;;;3.38;;
39188;SDS011;24915;50.858;4.376;2023-04-26T11:06:28;12.55;;;4.18;;
39188;SDS011;24915;50.858;4.376;2023-04-26T11:11:56;11.52;;;3.50;;
39188;SDS011;24915;50.858;4.376;2023-04-26T11:14:22;8.25;;;3.60;;
39188;SDS011;24915;50.858;4.376;2023-04-26T11:16:48;12.15;;;4.07;;
39188;SDS011;24915;50.858;4.376;2023-04-26T11:19:14;9.52;;;3.70;;
39188;SDS011;24915;50.858;4.376;2023-04-26T11:21:40;14.35;;;3.97;;
39188;SDS011;24915;50.858;4.376;2023-04-26T11:24:06;10.27;;;3.83;;
39188;SDS011;24915;50.858;4.376;2023-04-26T11:26:32;13.60;;;4.18;;
39188;SDS011;24915;50.858;4.376;2023-04-26T11:28:59;9.13;;;3.95;;
39188;SDS011;24915;50.858;4.376;2023-04-26T11:31:26;9.93;;;3.72;;
39188;SDS011;24915;50.858;4.376;2023-04-26T11:33:59;7.90;;;3.17;;
39188;SDS011;24915;50.858;4.376;2023-04-26T11:36:26;8.60;;;3.38;;
39188;SDS011;24915;50.858;4.376;2023-04-26T11:38:52;9.05;;;3.92;;
39188;SDS011;24915;50.858;4.376;2023-04-26T11:41:18;8.40;;;3.72;;
39188;SDS011;24915;50.858;4.376;2023-04-26T11:43:48;14.95;;;4.07;;
39188;SDS011;24915;50.858;4.376;2023-04-26T11:46:14;11.95;;;4.30;;
39188;SDS011;24915;50.858;4.376;2023-04-26T11:48:40;6.47;;;2.92;;
39188;SDS011;24915;50.858;4.376;2023-04-26T11:51:07;10.60;;;2.90;;
39188;SDS011;24915;50.858;4.376;2023-04-26T11:53:34;7.85;;;3.50;;
39188;SDS011;24915;50.858;4.376;2023-04-26T11:56:01;6.90;;;3.75;;
39188;SDS011;24915;50.858;4.376;2023-04-26T11:58:27;8.18;;;3.28;;
39188;SDS011;24915;50.858;4.376;2023-04-26T12:03:22;11.57;;;3.70;;
39188;SDS011;24915;50.858;4.376;2023-04-26T12:05:54;6.50;;;3.20;;
39188;SDS011;24915;50.858;4.376;2023-04-26T12:08:24;9.30;;;3.10;;
39188;SDS011;24915;50.858;4.376;2023-04-26T12:10:50;8.13;;;3.20;;
39188;SDS011;24915;50.858;4.376;2023-04-26T12:13:17;13.68;;;2.92;;
39188;SDS011;24915;50.858;4.376;2023-04-26T12:15:46;7.43;;;3.20;;
39188;SDS011;24915;50.858;4.376;2023-04-26T12:18:14;9.20;;;3.45;;
39188;SDS011;24915;50.858;4.376;2023-04-26T12:20:41;9.93;;;3.00;;
39188;SDS011;24915;50.858;4.376;2023-04-26T12:23:08;12.95;;;3.55;;
39188;SDS011;24915;50.858;4.376;2023-04-26T12:25:38;6.78;;;3.30;;
39188;SDS011;24915;50.858;4.376;2023-04-26T12:28:05;6.50;;;3.60;;
39188;SDS011;24915;50.858;4.376;2023-04-26T12:30:35;9.23;;;3.20;;
39188;SDS011;24915;50.858;4.376;2023-04-26T12:33:02;8.57;;;3.03;;
39188;SDS011;24915;50.858;4.376;2023-04-26T12:35:28;11.00;;;3.25;;
39188;SDS011;24915;50.858;4.376;2023-04-26T12:37:54;8.02;;;3.15;;
39188;SDS011;24915;50.858;4.376;2023-04-26T12:40:21;7.32;;;3.42;;
39188;SDS011;24915;50.858;4.376;2023-04-26T12:42:48;11.10;;;3.65;;
39188;SDS011;24915;50.858;4.376;2023-04-26T12:45:15;13.68;;;4.13;;
39188;SDS011;24915;50.858;4.376;2023-04-26T12:47:42;12.15;;;3.95;;
39188;SDS011;24915;50.858;4.376;2023-04-26T12:50:09;10.82;;;3.60;;
39188;SDS011;24915;50.858;4.376;2023-04-26T12:52:36;7.97;;;3.42;;
39188;SDS011;24915;50.858;4.376;2023-04-26T12:55:03;13.82;;;4.15;;
39188;SDS011;24915;50.858;4.376;2023-04-26T12:57:29;14.23;;;4.05;;
39188;SDS011;24915;50.858;4.376;2023-04-26T12:59:55;11.32;;;3.70;;
39188;SDS011;24915;50.858;4.376;2023-04-26T13:02:21;5.38;;;3.38;;
39188;SDS011;24915;50.858;4.376;2023-04-26T13:04:48;10.35;;;3.25;;
39188;SDS011;24915;50.858;4.376;2023-04-26T13:07:14;6.25;;;3.78;;
39188;SDS011;24915;50.858;4.376;2023-04-26T13:09:41;5.90;;;4.05;;
39188;SDS011;24915;50.858;4.376;2023-04-26T13:12:07;12.80;;;4.82;;
39188;SDS011;24915;50.858;4.376;2023-04-26T13:14:33;10.75;;;4.22;;
39188;SDS011;24915;50.858;4.376;2023-04-26T13:16:59;13.32;;;4.53;;
39188;SDS011;24915;50.858;4.376;2023-04-26T13:19:25;13.45;;;4.97;;
39188;SDS011;24915;50.858;4.376;2023-04-26T13:21:51;10.85;;;4.55;;
39188;SDS011;24915;50.858;4.376;2023-04-26T13:24:17;11.18;;;5.20;;
39188;SDS011;24915;50.858;4.376;2023-04-26T13:26:43;11.57;;;4.60;;
39188;SDS011;24915;50.858;4.376;2023-04-26T13:29:09;10.93;;;4.25;;
39188;SDS011;24915;50.858;4.376;2023-04-26T13:31:35;10.93;;;4.40;;
39188;SDS011;24915;50.858;4.376;2023-04-26T13:34:02;13.82;;;4.70;;
39188;SDS011;24915;50.858;4.376;2023-04-26T13:36:29;10.38;;;4.82;;
39188;SDS011;24915;50.858;4.376;2023-04-26T13:38:56;10.57;;;5.88;;
39188;SDS011;24915;50.858;4.376;2023-04-26T13:41:23;18.38;;;5.32;;
39188;SDS011;24915;50.858;4.376;2023-04-26T13:43:50;14.50;;;5.40;;
39188;SDS011;24915;50.858;4.376;2023-04-26T13:46:16;12.60;;;4.88;;
39188;SDS011;24915;50.858;4.376;2023-04-26T13:48:42;11.18;;;4.35;;
39188;SDS011;24915;50.858;4.376;2023-04-26T13:51:08;12.65;;;4.70;;
39188;SDS011;24915;50.858;4.376;2023-04-26T13:53:35;12.18;;;4.43;;
39188;SDS011;24915;50.858;4.376;2023-04-26T13:56:01;9.73;;;4.00;;
39188;SDS011;24915;50.858;4.376;2023-04-26T13:58:27;12.48;;;5.00;;
39188;SDS011;24915;50.858;4.376;2023-04-26T14:00:53;9.88;;;4.65;;
39188;SDS011;24915;50.858;4.376;2023-04-26T14:03:20;10.40;;;4.40;;
39188;SDS011;24915;50.858;4.376;2023-04-26T14:05:46;10.13;;;4.38;;
39188;SDS011;24915;50.858;4.376;2023-04-26T14:08:12;9.77;;;4.57;;
39188;SDS011;24915;50.858;4.376;2023-04-26T14:10:38;11.02;;;4.40;;
39188;SDS011;24915;50.858;4.376;2023-04-26T14:13:05;10.90;;;4.25;;
39188;SDS011;24915;50.858;4.376;2023-04-26T14:15:31;16.75;;;4.53;;
39188;SDS011;24915;50.858;4.376;2023-04-26T14:17:57;13.70;;;4.10;;
39188;SDS011;24915;50.858;4.376;2023-04-26T14:20:23;9.55;;;4.15;;
39188;SDS011;24915;50.858;4.376;2023-04-26T14:22:49;12.65;;;4.55;;
39188;SDS011;24915;50.858;4.376;2023-04-26T14:25:15;16.75;;;4.45;;
39188;SDS011;24915;50.858;4.376;2023-04-26T14:27:41;11.20;;;4.30;;
39188;SDS011;24915;50.858;4.376;2023-04-26T14:30:07;8.60;;;4.18;;
39188;SDS011;24915;50.858;4.376;2023-04-26T14:32:34;9.98;;;4.50;;
39188;SDS011;24915;50.858;4.376;2023-04-26T14:35:00;12.85;;;5.05;;
39188;SDS011;24915;50.858;4.376;2023-04-26T14:37:26;8.95;;;4.20;;
39188;SDS011;24915;50.858;4.376;2023-04-26T14:39:52;16.73;;;5.10;;
39188;SDS011;24915;50.858;4.376;2023-04-26T14:42:18;15.75;;;5.55;;
39188;SDS011;24915;50.858;4.376;2023-04-26T14:44:44;18.70;;;4.80;;
39188;SDS011;24915;50.858;4.376;2023-04-26T14:47:11;17.40;;;4.30;;
39188;SDS011;24915;50.858;4.376;2023-04-26T14:49:37;27.67;;;5.05;;
39188;SDS011;24915;50.858;4.376;2023-04-26T14:52:03;17.60;;;4.80;;
39188;SDS011;24915;50.858;4.376;2023-04-26T14:54:29;23.85;;;4.90;;
39188;SDS011;24915;50.858;4.376;2023-04-26T14:56:56;16.23;;;5.45;;